sensor_id;sensor_type;location;lat;lon;timestamp;temperature;humidity
75517;DHT22;64097;52.548;13.406;2023-05-19T06:01:35;16.80;47.50
75517;DHT22;64097;52.548;13.406;2023-05-19T06:04:01;16.90;47.60
75517;DHT22;64097;52.548;13.406;2023-05-19T06:06:27;16.90;47.50
75517;DHT22;64097;52.548;13.406;2023-05-19T06:08:53;17.00;47.60
75517;DHT22;64097;52.548;13.406;2023-05-19T06:11:18;17.00;47.50
75517;DHT22;64097;52.548;13.406;2023-05-19T06:13:44;17.10;47.40
75517;DHT22;64097;52.548;13.406;2023-05-19T06:16:10;17.10;47.30
75517;DHT22;64097;52.548;13.406;2023-05-19T06:18:35;17.20;47.30
75517;DHT22;64097;52.548;13.406;2023-05-19T06:21:01;17.20;47.30
75517;DHT22;64097;52.548;13.406;2023-05-19T06:23:29;17.20;47.20
75517;DHT22;64097;52.548;13.406;2023-05-19T06:25:55;17.30;47.40
75517;DHT22;64097;52.548;13.406;2023-05-19T06:28:21;17.30;47.30
75517;DHT22;64097;52.548;13.406;2023-05-19T06:30:46;17.40;47.30
75517;DHT22;64097;52.548;13.406;2023-05-19T06:33:12;17.40;47.20
75517;DHT22;64097;52.548;13.406;2023-05-19T06:35:38;17.50;47.30
75517;DHT22;64097;52.548;13.406;2023-05-19T06:38:03;17.50;47.10
75517;DHT22;64097;52.548;13.406;2023-05-19T06:40:30;17.60;47.10
75517;DHT22;64097;52.548;13.406;2023-05-19T06:42:56;17.60;47.00
75517;DHT22;64097;52.548;13.406;2023-05-19T06:45:22;17.60;47.00
75517;DHT22;64097;52.548;13.406;2023-05-19T06:47:48;17.70;47.00
75517;DHT22;64097;52.548;13.406;2023-05-19T06:50:14;17.70;46.90
75517;DHT22;64097;52.548;13.406;2023-05-19T06:52:40;17.70;46.90
75517;DHT22;64097;52.548;13.406;2023-05-19T06:55:06;17.80;47.00
75517;DHT22;64097;52.548;13.406;2023-05-19T06:57:32;17.90;47.00
75517;DHT22;64097;52.548;13.406;2023-05-19T06:59:57;17.90;47.00
75517;DHT22;64097;52.548;13.406;2023-05-19T07:02:23;17.90;47.00
75517;DHT22;64097;52.548;13.406;2023-05-19T07:04:49;17.90;47.00
75517;DHT22;64097;52.548;13.406;2023-05-19T07:07:17;18.00;47.00
75517;DHT22;64097;52.548;13.406;2023-05-19T07:09:42;18.00;47.00
75517;DHT22;64097;52.548;13.406;2023-05-19T07:12:08;18.10;47.00
75517;DHT22;64097;52.548;13.406;2023-05-19T07:14:34;18.20;47.10
75517;DHT22;64097;52.548;13.406;2023-05-19T07:17:00;18.20;47.20
75517;DHT22;64097;52.548;13.406;2023-05-19T07:19:26;18.30;47.10
75517;DHT22;64097;52.548;13.406;2023-05-19T07:21:52;18.30;47.10
75517;DHT22;64097;52.548;13.406;2023-05-19T07:24:19;18.30;47.10
75517;DHT22;64097;52.548;13.406;2023-05-19T07:26:45;18.40;47.20
75517;DHT22;64097;52.548;13.406;2023-05-19T07:29:11;18.40;47.20
75517;DHT22;64097;52.548;13.406;2023-05-19T07:31:37;18.40;47.10
75517;DHT22;64097;52.548;13.406;2023-05-19T07:34:03;18.50;47.10
75517;DHT22;64097;52.548;13.406;2023-05-19T07:36:28;18.60;47.20
75517;DHT22;64097;52.548;13.406;2023-05-19T07:38:54;18.60;47.00
75517;DHT22;64097;52.548;13.406;2023-05-19T07:41:20;18.70;46.80
75517;DHT22;64097;52.548;13.406;2023-05-19T07:43:46;18.70;46.60
75517;DHT22;64097;52.548;13.406;2023-05-19T07:46:11;18.80;46.50
75517;DHT22;64097;52.548;13.406;2023-05-19T07:48:37;18.80;46.30
75517;DHT22;64097;52.548;13.406;2023-05-19T07:51:03;18.90;46.30
75517;DHT22;64097;52.548;13.406;2023-05-19T07:53:29;18.90;46.00
75517;DHT22;64097;52.548;13.406;2023-05-19T07:55:54;19.00;46.00
75517;DHT22;64097;52.548;13.406;2023-05-19T07:58:21;19.10;45.80
75517;DHT22;64097;52.548;13.406;2023-05-19T08:00:46;19.10;45.80
75517;DHT22;64097;52.548;13.406;2023-05-19T08:03:12;19.20;45.70
75517;DHT22;64097;52.548;13.406;2023-05-19T08:05:38;19.20;45.60
75517;DHT22;64097;52.548;13.406;2023-05-19T08:08:03;19.30;45.60
75517;DHT22;64097;52.548;13.406;2023-05-19T08:10:29;19.40;45.60
75517;DHT22;64097;52.548;13.406;2023-05-19T08:12:55;19.40;45.10
75517;DHT22;64097;52.548;13.406;2023-05-19T08:15:21;19.50;44.90
75517;DHT22;64097;52.548;13.406;2023-05-19T08:17:46;19.60;44.70
75517;DHT22;64097;52.548;13.406;2023-05-19T08:20:12;19.60;44.50
75517;DHT22;64097;52.548;13.406;2023-05-19T08:22:38;19.70;44.50
75517;DHT22;64097;52.548;13.406;2023-05-19T08:25:04;19.70;44.40
75517;DHT22;64097;52.548;13.406;2023-05-19T08:27:31;19.80;44.30
75517;DHT22;64097;52.548;13.406;2023-05-19T08:29:57;19.90;44.10
75517;DHT22;64097;52.548;13.406;2023-05-19T08:32:23;19.90;44.00
75517;DHT22;64097;52.548;13.406;2023-05-19T08:34:48;19.90;43.90
75517;DHT22;64097;52.548;13.406;2023-05-19T08:37:14;20.00;43.70
75517;DHT22;64097;52.548;13.406;2023-05-19T08:39:40;20.00;43.10
75517;DHT22;64097;52.548;13.406;2023-05-19T08:42:06;20.00;43.00
75517;DHT22;64097;52.548;13.406;2023-05-19T08:44:37;20.00;42.90
75517;DHT22;64097;52.548;13.406;2023-05-19T08:47:04;20.10;42.60
75517;DHT22;64097;52.548;13.406;2023-05-19T08:49:35;20.10;42.70
75517;DHT22;64097;52.548;13.406;2023-05-19T08:52:12;20.10;42.30
75517;DHT22;64097;52.548;13.406;2023-05-19T08:54:51;20.20;42.10
75517;DHT22;64097;52.548;13.406;2023-05-19T08:57:18;20.20;42.00
75517;DHT22;64097;52.548;13.406;2023-05-19T08:59:44;20.20;41.60
75517;DHT22;64097;52.548;13.406;2023-05-19T09:02:10;20.20;41.60
75517;DHT22;64097;52.548;13.406;2023-05-19T09:04:38;20.30;41.30
75517;DHT22;64097;52.548;13.406;2023-05-19T09:07:04;20.30;41.20
75517;DHT22;64097;52.548;13.406;2023-05-19T09:09:30;20.40;41.20
75517;DHT22;64097;52.548;13.406;2023-05-19T09:11:57;20.40;41.00
75517;DHT22;64097;52.548;13.406;2023-05-19T09:14:22;20.40;40.70
75517;DHT22;64097;52.548;13.406;2023-05-19T09:16:48;20.50;40.50
75517;DHT22;64097;52.548;13.406;2023-05-19T09:19:17;20.50;40.30
75517;DHT22;64097;52.548;13.406;2023-05-19T09:21:43;20.50;40.50
75517;DHT22;64097;52.548;13.406;2023-05-19T09:24:10;20.60;40.70
75517;DHT22;64097;52.548;13.406;2023-05-19T09:26:40;20.60;40.70
75517;DHT22;64097;52.548;13.406;2023-05-19T09:29:12;20.70;40.60
75517;DHT22;64097;52.548;13.406;2023-05-19T09:31:38;20.70;40.10
75517;DHT22;64097;52.548;13.406;2023-05-19T09:34:11;20.70;39.90
75517;DHT22;64097;52.548;13.406;2023-05-19T09:36:39;20.70;39.50
75517;DHT22;64097;52.548;13.406;2023-05-19T09:39:15;20.70;39.40
75517;DHT22;64097;52.548;13.406;2023-05-19T09:41:41;20.80;39.50
75517;DHT22;64097;52.548;13.406;2023-05-19T09:44:12;20.80;39.30
75517;DHT22;64097;52.548;13.406;2023-05-19T09:46:37;20.90;39.10
75517;DHT22;64097;52.548;13.406;2023-05-19T09:49:17;20.90;38.80
75517;DHT22;64097;52.548;13.406;2023-05-19T09:51:43;20.90;38.80
75517;DHT22;64097;52.548;13.406;2023-05-19T09:54:13;20.90;38.20
75517;DHT22;64097;52.548;13.406;2023-05-19T09:56:39;21.00;38.10
75517;DHT22;64097;52.548;13.406;2023-05-19T09:59:05;21.00;38.20
75517;DHT22;64097;52.548;13.406;2023-05-19T10:01:31;21.00;38.30
75517;DHT22;64097;52.548;13.406;2023-05-19T10:04:02;21.10;38.20
75517;DHT22;64097;52.548;13.406;2023-05-19T10:06:29;21.10;38.20
75517;DHT22;64097;52.548;13.406;2023-05-19T10:08:55;21.20;37.80
75517;DHT22;64097;52.548;13.406;2023-05-19T10:11:22;21.20;38.30
75517;DHT22;64097;52.548;13.406;2023-05-19T10:13:50;21.20;37.20
75517;DHT22;64097;52.548;13.406;2023-05-19T10:16:16;21.20;37.20
75517;DHT22;64097;52.548;13.406;2023-05-19T10:18:43;21.30;37.10
75517;DHT22;64097;52.548;13.406;2023-05-19T10:21:09;21.30;37.10
75517;DHT22;64097;52.548;13.406;2023-05-19T10:23:36;21.20;37.20
75517;DHT22;64097;52.548;13.406;2023-05-19T10:26:03;21.30;37.10
75517;DHT22;64097;52.548;13.406;2023-05-19T10:28:35;21.30;37.10
75517;DHT22;64097;52.548;13.406;2023-05-19T10:31:01;21.30;37.20
75517;DHT22;64097;52.548;13.406;2023-05-19T10:36:33;21.30;37.00
75517;DHT22;64097;52.548;13.406;2023-05-19T10:39:31;21.30;36.70
75517;DHT22;64097;52.548;13.406;2023-05-19T10:42:15;21.40;36.50
75517;DHT22;64097;52.548;13.406;2023-05-19T10:47:34;21.40;36.20
75517;DHT22;64097;52.548;13.406;2023-05-19T10:50:00;21.40;36.10
75517;DHT22;64097;52.548;13.406;2023-05-19T10:52:26;21.50;36.30
75517;DHT22;64097;52.548;13.406;2023-05-19T10:54:54;21.50;36.20
75517;DHT22;64097;52.548;13.406;2023-05-19T10:57:27;21.50;36.90
75517;DHT22;64097;52.548;13.406;2023-05-19T10:59:54;21.50;36.20
75517;DHT22;64097;52.548;13.406;2023-05-19T11:07:40;21.60;36.10
75517;DHT22;64097;52.548;13.406;2023-05-19T11:10:07;21.70;36.00
75517;DHT22;64097;52.548;13.406;2023-05-19T11:12:44;21.70;36.00
75517;DHT22;64097;52.548;13.406;2023-05-19T11:15:13;21.70;36.10
75517;DHT22;64097;52.548;13.406;2023-05-19T11:17:40;21.80;36.10
75517;DHT22;64097;52.548;13.406;2023-05-19T11:20:18;21.80;36.00
75517;DHT22;64097;52.548;13.406;2023-05-19T11:23:03;21.90;36.00
75517;DHT22;64097;52.548;13.406;2023-05-19T11:28:07;22.00;35.60
75517;DHT22;64097;52.548;13.406;2023-05-19T11:30:34;22.00;35.60
75517;DHT22;64097;52.548;13.406;2023-05-19T11:33:00;22.00;35.70
75517;DHT22;64097;52.548;13.406;2023-05-19T11:35:27;22.00;35.50
75517;DHT22;64097;52.548;13.406;2023-05-19T11:37:54;22.10;35.60
75517;DHT22;64097;52.548;13.406;2023-05-19T11:40:20;22.10;35.30
75517;DHT22;64097;52.548;13.406;2023-05-19T11:42:47;22.20;35.00
75517;DHT22;64097;52.548;13.406;2023-05-19T11:45:13;22.20;35.00
75517;DHT22;64097;52.548;13.406;2023-05-19T11:47:38;22.30;34.90
75517;DHT22;64097;52.548;13.406;2023-05-19T11:50:04;22.30;35.00
75517;DHT22;64097;52.548;13.406;2023-05-19T11:52:30;22.30;34.80
75517;DHT22;64097;52.548;13.406;2023-05-19T11:54:59;22.30;34.80
75517;DHT22;64097;52.548;13.406;2023-05-19T11:57:26;22.30;34.80
75517;DHT22;64097;52.548;13.406;2023-05-19T11:59:51;22.30;34.70
75517;DHT22;64097;52.548;13.406;2023-05-19T12:02:22;22.30;34.50
75517;DHT22;64097;52.548;13.406;2023-05-19T12:04:52;22.40;34.30
75517;DHT22;64097;52.548;13.406;2023-05-19T12:07:21;22.40;34.20
75517;DHT22;64097;52.548;13.406;2023-05-19T12:09:48;22.50;34.40
75517;DHT22;64097;52.548;13.406;2023-05-19T12:12:19;22.50;34.10
75517;DHT22;64097;52.548;13.406;2023-05-19T12:14:49;22.50;34.00
75517;DHT22;64097;52.548;13.406;2023-05-19T12:17:17;22.60;34.10
75517;DHT22;64097;52.548;13.406;2023-05-19T12:19:45;22.60;33.90
75517;DHT22;64097;52.548;13.406;2023-05-19T12:22:12;22.60;33.90
75517;DHT22;64097;52.548;13.406;2023-05-19T12:24:38;22.60;33.50
75517;DHT22;64097;52.548;13.406;2023-05-19T12:27:19;22.60;33.60
75517;DHT22;64097;52.548;13.406;2023-05-19T12:29:53;22.70;33.60
75517;DHT22;64097;52.548;13.406;2023-05-19T12:32:23;22.70;33.50
75517;DHT22;64097;52.548;13.406;2023-05-19T12:34:50;22.70;33.20
75517;DHT22;64097;52.548;13.406;2023-05-19T12:37:16;22.70;33.10
75517;DHT22;64097;52.548;13.406;2023-05-19T12:39:43;22.70;32.90
75517;DHT22;64097;52.548;13.406;2023-05-19T12:42:10;22.80;32.70
75517;DHT22;64097;52.548;13.406;2023-05-19T12:44:38;22.80;32.80
75517;DHT22;64097;52.548;13.406;2023-05-19T12:47:06;22.80;32.80
75517;DHT22;64097;52.548;13.406;2023-05-19T12:49:32;22.90;32.90
75517;DHT22;64097;52.548;13.406;2023-05-19T12:52:02;22.90;32.90
75517;DHT22;64097;52.548;13.406;2023-05-19T12:54:32;22.90;32.80
75517;DHT22;64097;52.548;13.406;2023-05-19T12:56:58;22.90;32.70
75517;DHT22;64097;52.548;13.406;2023-05-19T12:59:24;22.90;32.60
75517;DHT22;64097;52.548;13.406;2023-05-19T13:01:57;22.90;32.50
75517;DHT22;64097;52.548;13.406;2023-05-19T13:04:25;22.80;32.70
75517;DHT22;64097;52.548;13.406;2023-05-19T13:06:52;22.80;32.90
75517;DHT22;64097;52.548;13.406;2023-05-19T13:09:19;22.80;33.00
75517;DHT22;64097;52.548;13.406;2023-05-19T13:11:46;22.70;33.90
75517;DHT22;64097;52.548;13.406;2023-05-19T13:14:18;22.70;33.30
75517;DHT22;64097;52.548;13.406;2023-05-19T13:16:45;22.80;33.20
75517;DHT22;64097;52.548;13.406;2023-05-19T13:19:12;22.80;33.10
75517;DHT22;64097;52.548;13.406;2023-05-19T13:21:38;22.80;33.10
75517;DHT22;64097;52.548;13.406;2023-05-19T13:24:04;22.80;33.30
75517;DHT22;64097;52.548;13.406;2023-05-19T13:26:30;22.70;33.40
75517;DHT22;64097;52.548;13.406;2023-05-19T13:28:56;22.80;33.30
75517;DHT22;64097;52.548;13.406;2023-05-19T13:31:21;22.80;33.60
75517;DHT22;64097;52.548;13.406;2023-05-19T13:33:47;22.80;33.60
75517;DHT22;64097;52.548;13.406;2023-05-19T13:36:12;22.90;33.80
75517;DHT22;64097;52.548;13.406;2023-05-19T13:38:38;22.90;33.70
75517;DHT22;64097;52.548;13.406;2023-05-19T13:41:06;23.00;33.70
75517;DHT22;64097;52.548;13.406;2023-05-19T13:43:32;23.00;33.60
75517;DHT22;64097;52.548;13.406;2023-05-19T13:45:57;23.00;33.60
75517;DHT22;64097;52.548;13.406;2023-05-19T13:48:23;22.90;33.70
75517;DHT22;64097;52.548;13.406;2023-05-19T13:50:49;22.90;33.70
75517;DHT22;64097;52.548;13.406;2023-05-19T13:53:18;22.90;33.80
75517;DHT22;64097;52.548;13.406;2023-05-19T13:55:44;22.90;33.80
75517;DHT22;64097;52.548;13.406;2023-05-19T13:58:10;22.90;33.70
